Latest Weather Observations for Sydney Airport

IDN60801

Issued at 12:35 am EDT Sunday 21 December 2014 (issued every 30 minutes, with the page automatically refreshed every 10 minutes)

About weather observations | Map of weather stations | Latest weather observations for NSW | Other Formats
Station Details ID: 066037 Name: SYDNEY AIRPORT AMO Lat: -33.95 Lon: 151.17 Height: 6.0 m
Data from the previous 72 hours. | See also: Recent months at Sydney Airport
Date/Time
EDT
Temp
°C
App
Temp
°C
Dew
Point
Rel
Hum
%
Delta-T
°C
Wind Press
QNH
hPa
Press
MSL
hPa
Rain
since 9 am
mm
Dir
 
Spd
km/h
Gust
km/h
Spd
kts
Gust
kts
20/11:30pm 20.2 19.5 13.2 64 4.0 NNE 9 13 5 7 1018.9 1018.9 0.0
20/11:00pm 20.3 18.8 13.1 63 4.1 NE 13 17 7 9 1018.9 1018.9 0.0
20/10:30pm 20.2 18.6 12.9 63 4.1 NE 13 15 7 8 1018.8 1018.8 0.0
20/10:00pm 20.3 18.7 12.9 62 4.2 NE 13 17 7 9 1018.7 1018.7 0.0
20/09:30pm 20.4 18.0 12.6 61 4.4 NE 17 19 9 10 1018.3 1018.3 0.0
20/09:00pm 20.4 17.9 12.2 59 4.6 NE 17 22 9 12 1018.0 1018.0 0.0
20/08:30pm 20.9 17.8 11.7 55 5.1 ENE 19 26 10 14 1017.5 1017.5 0.0
20/08:00pm 20.9 17.8 11.7 55 5.1 ENE 19 26 10 14 1017.2 1017.2 0.0
20/07:30pm 21.0 16.9 11.6 55 5.2 ENE 24 30 13 16 1016.9 1016.9 0.0
20/07:00pm 21.3 17.7 11.8 54 5.3 ENE 22 32 12 17 1016.7 1016.7 0.0
20/06:30pm 21.5 17.5 11.8 54 5.4 ENE 24 32 13 17 1016.2 1016.2 0.0
20/05:30pm 21.9 17.6 10.8 49 6.1 ENE 24 33 13 18 1015.8 1015.8 0.0
20/05:00pm 22.3 17.7 11.1 49 6.2 E 26 37 14 20 1015.9 1015.9 0.0
20/04:30pm 22.2 17.1 10.5 47 6.4 E 28 33 15 18 1016.0 1016.0 0.0
20/04:00pm 22.2 17.5 10.7 48 6.3 E 26 32 14 17 1016.2 1016.2 0.0
20/03:30pm 22.5 17.8 10.7 47 6.5 E 26 33 14 18 1016.4 1016.4 0.0
20/03:00pm 23.2 18.5 10.5 44 7.0 E 26 33 14 18 1016.5 1016.5 0.0
20/02:30pm 23.2 18.8 10.5 44 7.0 E 24 32 13 17 1016.6 1016.6 0.0
20/02:00pm 21.8 17.9 10.7 49 6.1 E 22 37 12 20 1016.9 1016.9 0.0
20/01:30pm 22.1 18.5 10.6 48 6.3 E 20 28 11 15 1017.2 1017.2 0.0
20/01:00pm 23.1 20.5 10.6 45 6.9 E 15 30 8 16 1017.4 1017.4 0.0
20/12:30pm 22.9 19.9 10.8 46 6.7 E 17 26 9 14 1017.7 1017.7 0.0
20/12:00pm 22.4 18.9 10.3 46 6.6 SE 19 24 10 13 1017.7 1017.7 0.0
20/11:30am 22.1 19.1 10.8 48 6.2 SE 17 24 9 13 1018.2 1018.2 0.0
20/11:00am 21.5 19.2 10.3 49 6.1 SSE 13 17 7 9 1018.4 1018.4 0.0
20/10:30am 20.9 18.7 10.8 52 5.5 SSE 13 17 7 9 1018.4 1018.4 0.0
20/10:00am 19.9 17.7 10.7 55 5.0 SSE 13 17 7 9 1018.4 1018.4 0.0
20/09:30am 19.7 17.0 10.4 55 5.0 SSE 15 17 8 9 1018.5 1018.5 0.0
20/09:00am 19.4 16.9 9.8 53 5.1 SSE 13 17 7 9 1018.6 1018.6 0.0
20/08:30am 19.3 18.1 11.5 60 4.3 S 9 13 5 7 1018.5 1018.5 0.0
20/08:00am 19.2 18.2 11.1 59 4.4 SSE 7 13 4 7 1018.4 1018.4 0.0
20/07:30am 19.0 18.1 11.3 61 4.2 S 7 9 4 5 1018.1 1018.1 0.0
20/07:00am 18.6 17.6 11.0 61 4.1 S 7 9 4 5 1017.8 1017.8 0.0
20/06:30am 18.4 16.9 10.6 60 4.2 S 9 13 5 7 1017.6 1017.6 0.0
20/05:30am 18.0 16.3 12.4 70 3.1 S 13 17 7 9 1017.4 1017.4 0.0
20/05:00am 18.2 15.8 11.4 64 3.7 SSW 15 19 8 10 1017.2 1017.2 0.0
20/04:30am 18.5 16.2 10.5 59 4.3 SSE 13 15 7 8 1017.0 1017.0 0.0
20/04:00am 18.6 15.7 9.7 56 4.7 SSE 15 17 8 9 1016.9 1016.9 0.0
20/03:30am 18.8 16.1 10.2 57 4.6 SE 15 19 8 10 1017.0 1017.0 0.0
20/03:00am 18.6 15.8 9.9 57 4.6 SE 15 19 8 10 1017.2 1017.2 0.0
20/02:30am 18.7 15.7 10.5 59 4.4 SSE 17 20 9 11 1017.3 1017.3 0.0
20/02:00am 18.9 16.2 10.3 57 4.6 SSE 15 20 8 11 1017.5 1017.5 0.0
20/01:30am 18.9 16.1 10.1 56 4.7 SSE 15 17 8 9 1017.8 1017.8 0.0
20/01:00am 19.0 16.1 9.8 55 4.9 SSE 15 20 8 11 1018.1 1018.1 0.0
20/12:30am 19.2 16.2 10.5 57 4.7 SE 17 24 9 13 1018.4 1018.4 0.0
20/12:00am 19.1 16.0 10.3 56 4.7 SE 17 24 9 13 1018.5 1018.5 0.0
 
Date/Time
EDT
Temp
°C
App
Temp
°C
Dew
Point
Rel
Hum
%
Delta-T
°C
Wind Press
QNH
hPa
Press
MSL
hPa
Rain
since 9 am
mm
Dir
 
Spd
km/h
Gust
km/h
Spd
kts
Gust
kts
19/11:30pm 19.2 14.9 10.9 58 4.5 SSE 24 30 13 16 1018.7 1018.7 0.0
19/11:00pm 19.3 15.5 11.0 58 4.5 SE 22 30 12 16 1018.7 1018.7 0.0
19/10:30pm 19.4 15.7 9.3 52 5.3 SE 19 26 10 14 1018.5 1018.5 0.0
19/10:00pm 19.4 14.3 9.3 52 5.3 SSE 26 33 14 18 1018.1 1018.1 0.0
19/09:30pm 19.5 15.5 10.4 55 4.9 SE 22 30 12 16 1017.8 1017.8 0.0
19/09:00pm 19.5 15.3 9.9 54 5.1 SE 22 28 12 15 1017.6 1017.6 0.0
19/08:30pm 19.8 15.2 9.6 51 5.4 SSE 24 32 13 17 1017.3 1017.3 0.0
19/08:00pm 19.7 14.5 8.8 49 5.7 SSE 26 32 14 17 1016.8 1016.8 0.0
19/07:30pm 19.7 15.1 9.7 52 5.3 SSE 24 33 13 18 1016.2 1016.2 0.0
19/07:00pm 19.9 15.3 9.8 52 5.4 SE 24 33 13 18 1015.6 1015.6 0.0
19/06:30pm 19.9 14.6 8.6 48 5.9 SE 26 32 14 17 1015.0 1015.0 0.0
19/06:00pm 20.3 14.9 9.6 50 5.7 SE 28 33 15 18 1014.5 1014.5 0.0
19/05:30pm 20.3 15.3 11.0 55 5.1 SSE 28 33 15 18 1013.9 1013.9 0.0
19/05:00pm 21.7 15.9 9.6 46 6.5 SSE 30 37 16 20 1013.6 1013.6 0.0
19/04:30pm 20.9 15.4 10.6 51 5.6 SSE 30 39 16 21 1013.3 1013.3 0.0
19/04:00pm 21.4 16.2 10.2 49 6.1 SSE 28 37 15 20 1013.3 1013.3 0.0
19/03:30pm 22.6 17.3 9.7 44 7.0 SSE 28 35 15 19 1013.4 1013.4 0.0
19/03:00pm 21.2 15.7 9.2 46 6.4 SSE 28 33 15 18 1013.3 1013.3 0.0
19/02:30pm 21.8 16.0 8.0 41 7.2 SSE 28 35 15 19 1013.4 1013.4 0.0
19/02:00pm 21.1 16.1 11.1 52 5.5 SSE 28 35 15 19 1013.3 1013.3 0.0
19/01:30pm 20.9 14.9 10.2 50 5.8 SSE 32 39 17 21 1013.6 1013.6 0.0
19/01:00pm 20.6 15.7 11.4 55 5.1 SSE 28 35 15 19 1013.5 1013.5 0.0
19/12:30pm 21.2 16.2 11.0 52 5.6 SSE 28 37 15 20 1013.4 1013.4 0.0
19/12:00pm 20.5 15.2 11.4 56 5.0 SSE 30 35 16 19 1013.5 1013.5 0.0
19/11:30am 21.3 15.6 11.8 54 5.3 SSE 33 41 18 22 1013.5 1013.5 0.0
19/11:00am 20.1 14.6 12.0 59 4.5 S 32 41 17 22 1013.4 1013.4 0.0
19/10:30am 20.3 14.8 12.5 61 4.4 S 33 41 18 22 1013.2 1013.2 0.0
19/10:00am 20.3 14.0 11.0 55 5.1 S 35 43 19 23 1012.9 1012.9 0.0
19/09:30am 20.0 13.8 12.7 63 4.1 S 37 50 20 27 1012.9 1012.9 0.0
19/09:00am 19.9 13.6 12.2 61 4.3 S 37 46 20 25 1012.6 1012.6 0.0
19/08:30am 19.9 14.3 13.4 66 3.7 S 35 48 19 26 1012.3 1012.3 0.0
19/08:00am 19.4 12.9 13.0 66 3.6 S 39 50 21 27 1012.0 1012.0 0.0
19/07:30am 19.5 13.5 13.2 67 3.6 S 37 52 20 28 1011.7 1011.7 0.0
19/07:00am 19.3 12.4 13.9 71 3.1 S 43 54 23 29 1011.0 1011.0 0.0
19/06:30am 18.9 11.8 14.0 73 2.8 S 44 59 24 32 1010.7 1010.7 0.0
19/06:00am 18.7 12.2 15.1 79 2.1 S 43 54 23 29 1010.1 1010.1 0.0
19/05:30am 18.7 12.3 15.5 81 1.9 S 43 57 23 31 1009.6 1009.6 0.0
19/05:00am 18.8 12.1 16.1 84 1.6 SSW 46 59 25 32 1008.9 1008.9 0.0
19/04:30am 19.0 11.9 16.0 83 1.8 SSW 48 63 26 34 1008.4 1008.4 0.0
19/04:00am 19.4 12.8 16.4 83 1.8 SSW 46 69 25 37 1007.9 1007.9 0.0
19/03:52am 21.4 17.3 15.9 71 3.3 WSW 32 69 17 37 1007.3 1007.3 0.0
19/03:30am 21.1 18.5 17.7 81 2.1 W 28 35 15 19 1006.7 1006.7 0.0
19/03:00am 21.1 20.0 19.4 90 1.1 W 24 28 13 15 1006.4 1006.4 0.0
19/02:30am 20.9 22.2 19.3 90 1.0 WNW 11 13 6 7 1006.2 1006.2 0.0
19/02:00am 21.0 22.3 19.4 90 1.0 WNW 11 13 6 7 1006.0 1006.0 0.0
19/01:30am 21.3 23.1 19.6 90 1.1 WNW 9 11 5 6 1005.9 1005.9 0.0
19/01:00am 21.4 23.6 19.7 90 1.1 WNW 7 9 4 5 1005.9 1005.9 0.0
19/12:30am 22.4 24.7 19.8 85 1.7 WNW 7 9 4 5 1006.1 1006.1 0.0
19/12:00am 23.0 25.0 19.9 83 2.0 NW 9 11 5 6 1006.3 1006.3 0.0
 
Date/Time
EDT
Temp
°C
App
Temp
°C
Dew
Point
Rel
Hum
%
Delta-T
°C
Wind Press
QNH
hPa
Press
MSL
hPa
Rain
since 9 am
mm
Dir
 
Spd
km/h
Gust
km/h
Spd
kts
Gust
kts
18/11:30pm 22.4 24.8 20.1 87 1.5 WSW 7 9 4 5 1006.4 1006.4 0.0
18/11:00pm 22.2 24.7 20.2 88 1.3 NNE 7 7 4 4 1006.3 1006.3 0.0
18/10:30pm 22.5 25.0 20.3 87 1.4 ENE 7 7 4 4 1006.4 1006.4 0.0
18/10:00pm 22.5 24.7 20.3 87 1.4 NNE 9 11 5 6 1006.3 1006.3 0.0
18/09:30pm 23.3 24.0 20.4 84 1.9 NNE 17 20 9 11 1006.0 1006.0 0.0
18/09:00pm 23.2 24.3 20.4 84 1.8 NE 15 20 8 11 1005.8 1005.8 0.0
18/08:30pm 23.4 24.0 20.3 83 2.0 NE 17 22 9 12 1005.4 1005.4 0.0
18/08:00pm 23.8 23.5 20.3 81 2.3 NE 22 30 12 16 1005.5 1005.5 0.0
18/07:30pm 24.4 23.5 19.9 76 2.9 NE 24 32 13 17 1005.1 1005.1 0.0
18/07:00pm 24.9 23.1 19.6 72 3.4 NE 28 35 15 19 1004.9 1004.9 0.0
18/06:30pm 25.4 24.2 19.2 68 4.0 NE 24 32 13 17 1004.5 1004.5 0.0
18/06:00pm 24.9 23.6 19.0 69 3.8 ENE 24 32 13 17 1004.1 1004.1 0.0
18/05:30pm 25.5 23.3 18.8 66 4.3 ENE 28 33 15 18 1003.9 1003.9 0.0
18/05:00pm 27.1 25.0 18.1 58 5.7 NE 26 32 14 17 1004.0 1004.0 0.0
18/04:30pm 26.1 23.9 18.6 63 4.8 NE 28 41 15 22 1004.2 1004.2 0.0
18/04:00pm 26.0 23.7 18.5 63 4.8 NE 28 35 15 19 1004.8 1004.8 0.0
18/03:30pm 26.8 24.0 18.1 59 5.5 ENE 30 37 16 20 1005.2 1005.2 0.0
18/03:00pm 25.6 22.9 17.6 61 5.0 NE 28 35 15 19 1005.6 1005.6 0.0
18/02:30pm 27.0 24.6 17.3 55 6.1 ENE 26 33 14 18 1005.9 1005.9 0.0
18/02:00pm 26.2 23.7 17.1 57 5.7 ENE 26 33 14 18 1006.2 1006.2 0.0
18/01:30pm 24.3 22.1 17.0 63 4.5 NE 24 32 13 17 1006.7 1006.7 0.0
18/01:00pm 24.5 23.2 16.7 61 4.8 NE 19 30 10 16 1006.9 1006.9 0.0
18/12:30pm 23.2 23.1 16.9 67 3.9 ESE 13 19 7 10 1007.8 1007.8 0.0
18/12:00pm 22.3 22.0 16.4 69 3.6 SSE 13 17 7 9 1007.9 1007.9 0.0
18/11:30am 22.9 23.4 16.5 67 3.9 SSW 9 11 5 6 1008.3 1008.3 0.0
18/11:00am 21.0 21.9 16.5 75 2.7 WSW 7 13 4 7 1008.9 1008.9 0.0
18/10:30am 21.1 22.0 16.1 73 3.0 WSW 6 9 3 5 1009.1 1009.1 0.0
18/10:00am 20.3 20.9 15.8 75 2.7 E 7 9 4 5 1009.6 1009.6 0.0
18/09:30am 19.9 20.6 15.5 76 2.6 W 6 11 3 6 1010.1 1010.1 0.0
18/09:00am 19.5 19.5 15.3 76 2.5 WSW 9 13 5 7 1010.2 1010.2 0.0
18/08:30am 19.3 19.3 15.2 77 2.4 SW 9 13 5 7 1010.2 1010.2 0.0
18/08:00am 18.7 18.2 14.9 78 2.2 W 11 17 6 9 1010.7 1010.7 0.0
18/07:30am 19.1 18.1 14.6 75 2.6 WNW 13 17 7 9 1010.3 1010.3 0.0
18/07:00am 18.8 18.6 14.7 77 2.4 WSW 9 13 5 7 1010.1 1010.1 0.0
18/06:30am 19.2 18.9 14.4 74 2.8 W 9 19 5 10 1009.7 1009.7 0.0
18/06:00am 19.2 19.9 14.4 74 2.8 SW 4 9 2 5 1009.5 1009.5 0.0
18/05:30am 19.2 19.5 14.6 74 2.7 SW 6 9 3 5 1009.4 1009.4 0.0
18/05:00am 19.4 19.3 15.0 75 2.6 S 9 9 5 5 1009.0 1009.0 0.0
18/04:30am 19.3 19.0 14.5 74 2.8 SSE 9 9 5 5 1008.9 1008.9 0.0
18/04:00am 19.2 18.4 14.0 72 3.0 SE 11 13 6 7 1008.5 1008.5 0.0
18/03:30am 19.0 18.9 13.8 72 3.0 ESE 7 11 4 6 1008.9 1008.9 0.0
18/03:00am 19.1 17.7 13.5 70 3.2 NNE 13 17 7 9 1009.8 1009.8 0.0
18/02:30am 19.4 17.8 12.8 65 3.7 NE 13 17 7 9 1010.2 1010.2 0.0
18/02:00am 19.3 18.0 12.5 64 3.8 ENE 11 17 6 9 1009.9 1009.9 0.0
18/01:30am 19.3 17.9 12.3 64 3.9 NE 11 17 6 9 1010.4 1010.4 0.0
18/01:00am 19.5 18.1 12.3 63 4.0 NE 11 15 6 8 1010.8 1010.8 0.0

Other Formats:

Comma delimited format used in spreadsheet applications
http://www.bom.gov.au/fwo/IDN60801/IDN60801.94767.axf

JavaScript Object Notation format (JSON) in row-major order
http://www.bom.gov.au/fwo/IDN60801/IDN60801.94767.json